createdAt,value
2019-01-31T00:00:01.353Z,0
2019-01-31T00:00:41.906Z,0
2019-01-31T00:01:22.468Z,0
2019-01-31T00:02:03.028Z,0
2019-01-31T00:02:43.590Z,0
2019-01-31T00:03:24.168Z,0
2019-01-31T00:04:04.764Z,0
2019-01-31T00:04:45.337Z,0
2019-01-31T00:05:25.894Z,0
2019-01-31T00:06:06.510Z,0
2019-01-31T00:06:47.065Z,0
2019-01-31T00:07:27.622Z,0
2019-01-31T00:08:08.189Z,0
2019-01-31T00:08:48.837Z,0
2019-01-31T00:09:29.388Z,0
2019-01-31T00:10:09.928Z,0
2019-01-31T00:10:50.490Z,0
2019-01-31T00:11:31.073Z,0
2019-01-31T00:12:11.636Z,0
2019-01-31T00:12:52.203Z,0
2019-01-31T00:13:32.766Z,0
2019-01-31T00:14:13.330Z,0
2019-01-31T00:14:53.901Z,0
2019-01-31T00:15:34.463Z,0
2019-01-31T00:16:15.019Z,0
2019-01-31T00:16:55.575Z,0
2019-01-31T00:17:36.129Z,0
2019-01-31T00:18:16.682Z,0
2019-01-31T00:18:57.247Z,0
2019-01-31T00:19:37.805Z,0
2019-01-31T00:20:18.350Z,0
2019-01-31T00:20:58.919Z,0
2019-01-31T00:21:39.475Z,0
2019-01-31T00:22:20.029Z,0
2019-01-31T00:23:00.579Z,0
2019-01-31T00:23:41.143Z,0
2019-01-31T00:24:21.694Z,0
2019-01-31T00:25:02.248Z,0
2019-01-31T00:25:42.840Z,0
2019-01-31T00:26:23.406Z,0
2019-01-31T00:27:03.954Z,0
2019-01-31T00:27:44.515Z,0
2019-01-31T00:28:25.076Z,0
2019-01-31T00:29:05.643Z,0
2019-01-31T00:29:46.183Z,0
2019-01-31T00:30:26.741Z,0
2019-01-31T00:31:07.295Z,0
2019-01-31T00:31:47.856Z,0
2019-01-31T00:32:28.400Z,0
2019-01-31T00:33:08.967Z,0
2019-01-31T00:33:49.541Z,0
2019-01-31T00:34:30.100Z,0
2019-01-31T00:35:10.666Z,0
2019-01-31T00:35:51.216Z,0
2019-01-31T00:36:31.813Z,0
2019-01-31T00:37:12.364Z,0
2019-01-31T00:37:52.923Z,0
2019-01-31T00:38:33.456Z,0
2019-01-31T00:39:14.026Z,0
2019-01-31T00:39:54.600Z,0
2019-01-31T00:40:35.173Z,0
2019-01-31T00:41:15.727Z,0
2019-01-31T00:41:56.285Z,0
2019-01-31T00:42:36.845Z,0
2019-01-31T00:43:17.425Z,0
2019-01-31T00:43:57.964Z,0
2019-01-31T00:44:38.514Z,0
2019-01-31T00:45:19.085Z,0
2019-01-31T00:45:59.639Z,0
2019-01-31T00:46:40.203Z,0
2019-01-31T00:47:20.754Z,0
2019-01-31T00:48:01.320Z,0
2019-01-31T00:48:41.883Z,0
2019-01-31T00:49:22.442Z,0
2019-01-31T00:50:02.995Z,0
2019-01-31T00:50:43.568Z,0
2019-01-31T00:51:24.129Z,0
2019-01-31T00:52:04.701Z,0
2019-01-31T00:52:45.251Z,0
2019-01-31T00:53:25.875Z,0
2019-01-31T00:54:06.428Z,0
2019-01-31T00:54:47.040Z,0
2019-01-31T00:55:27.608Z,0
2019-01-31T00:56:08.214Z,0
2019-01-31T00:56:48.764Z,0
2019-01-31T00:57:29.328Z,0
2019-01-31T00:58:09.896Z,0
2019-01-31T00:58:50.457Z,0
2019-01-31T00:59:31.032Z,0
2019-01-31T01:00:11.586Z,0
2019-01-31T01:00:52.163Z,0
2019-01-31T01:01:32.721Z,0
2019-01-31T01:02:13.275Z,0
2019-01-31T01:02:53.847Z,0
2019-01-31T01:03:36.798Z,0
2019-01-31T01:04:14.982Z,0
2019-01-31T01:04:55.581Z,0
2019-01-31T01:05:36.133Z,0
2019-01-31T01:06:16.703Z,0
2019-01-31T01:06:57.270Z,0
2019-01-31T01:07:37.821Z,0
2019-01-31T01:08:18.396Z,0
2019-01-31T01:09:07.547Z,0
2019-01-31T01:09:39.510Z,0
2019-01-31T01:10:20.064Z,0
2019-01-31T01:11:00.631Z,0
2019-01-31T01:11:41.186Z,0
2019-01-31T01:12:21.734Z,0
2019-01-31T01:13:02.298Z,0
2019-01-31T01:13:42.852Z,0
2019-01-31T01:14:23.404Z,0
2019-01-31T01:15:03.973Z,0
2019-01-31T01:15:44.608Z,0
2019-01-31T01:16:25.114Z,0
2019-01-31T01:17:05.666Z,0
2019-01-31T01:17:46.230Z,0
2019-01-31T01:18:26.796Z,0
2019-01-31T01:19:07.378Z,0
2019-01-31T01:19:47.953Z,0
2019-01-31T01:20:28.510Z,0
2019-01-31T01:21:09.069Z,0
2019-01-31T01:21:49.626Z,0
2019-01-31T01:22:30.180Z,0
2019-01-31T01:23:10.741Z,0
2019-01-31T01:23:51.290Z,0
2019-01-31T01:24:31.853Z,0
2019-01-31T01:25:12.426Z,0
2019-01-31T01:25:52.988Z,0
2019-01-31T01:26:33.536Z,0
2019-01-31T01:27:14.098Z,0
2019-01-31T01:27:54.665Z,0
2019-01-31T01:28:35.236Z,0
2019-01-31T01:29:15.784Z,0
2019-01-31T01:29:56.330Z,0
2019-01-31T01:30:36.888Z,0
2019-01-31T01:31:17.438Z,0
2019-01-31T01:31:57.994Z,0
2019-01-31T01:32:38.540Z,0
2019-01-31T01:33:19.106Z,0
2019-01-31T01:33:59.659Z,0
2019-01-31T01:34:40.218Z,0
2019-01-31T01:35:20.762Z,0
2019-01-31T01:36:01.321Z,0
2019-01-31T01:36:41.871Z,0
2019-01-31T01:37:22.453Z,0
2019-01-31T01:38:03.027Z,0
2019-01-31T01:38:43.592Z,0
2019-01-31T01:39:24.168Z,0
2019-01-31T01:40:04.724Z,0
2019-01-31T01:40:45.284Z,0
2019-01-31T01:41:25.827Z,0
2019-01-31T01:42:06.376Z,0
2019-01-31T01:42:46.939Z,0
2019-01-31T01:43:27.510Z,0
2019-01-31T01:44:08.059Z,0
2019-01-31T01:44:48.628Z,0
2019-01-31T01:45:29.184Z,0
2019-01-31T01:46:09.772Z,0
2019-01-31T01:46:50.332Z,0
2019-01-31T01:47:30.893Z,0
2019-01-31T01:48:11.465Z,0
2019-01-31T01:48:52.028Z,0
2019-01-31T01:49:32.901Z,0
2019-01-31T01:50:13.465Z,0
2019-01-31T01:50:54.026Z,0
2019-01-31T01:51:34.575Z,0
2019-01-31T01:52:15.124Z,0
2019-01-31T01:52:55.680Z,0
2019-01-31T01:53:36.229Z,0
2019-01-31T01:54:16.778Z,0
2019-01-31T01:54:57.326Z,0
2019-01-31T01:55:37.881Z,0
2019-01-31T01:56:18.441Z,0
2019-01-31T01:56:59.002Z,0
2019-01-31T01:57:39.570Z,0
2019-01-31T01:58:20.144Z,0
2019-01-31T01:59:00.695Z,0
2019-01-31T01:59:41.248Z,0
2019-01-31T02:00:21.815Z,0
2019-01-31T02:01:02.381Z,0
2019-01-31T02:01:42.952Z,0
2019-01-31T02:02:23.516Z,0
2019-01-31T02:03:04.083Z,0
2019-01-31T02:03:44.638Z,0
2019-01-31T02:04:25.183Z,0
2019-01-31T02:05:05.729Z,0
2019-01-31T02:05:46.297Z,0
2019-01-31T02:06:26.857Z,0
2019-01-31T02:07:07.421Z,0
2019-01-31T02:07:47.977Z,0
2019-01-31T02:08:28.538Z,0
2019-01-31T02:09:09.127Z,0
2019-01-31T02:09:49.687Z,0
2019-01-31T02:10:30.235Z,0
2019-01-31T02:11:10.784Z,0
2019-01-31T02:11:51.335Z,0
2019-01-31T02:12:31.906Z,0
2019-01-31T02:13:12.473Z,0
2019-01-31T02:13:53.025Z,0
2019-01-31T02:14:33.598Z,0
2019-01-31T02:15:14.155Z,0
2019-01-31T02:15:54.718Z,0
2019-01-31T02:16:35.259Z,0
2019-01-31T02:17:15.815Z,0
2019-01-31T02:17:56.372Z,0
2019-01-31T02:18:36.913Z,0
2019-01-31T02:19:17.470Z,0
2019-01-31T02:19:58.024Z,0
2019-01-31T02:20:38.579Z,0
2019-01-31T02:21:19.128Z,0
2019-01-31T02:21:59.726Z,0
2019-01-31T02:22:40.281Z,0
2019-01-31T02:23:20.849Z,0
2019-01-31T02:24:01.412Z,0
2019-01-31T02:24:41.968Z,0
2019-01-31T02:25:22.522Z,0
2019-01-31T02:26:03.088Z,0
2019-01-31T02:26:43.631Z,0
2019-01-31T02:27:24.200Z,0
2019-01-31T02:28:04.746Z,0
2019-01-31T02:28:45.310Z,0
2019-01-31T02:29:25.860Z,0
2019-01-31T02:30:06.416Z,0
2019-01-31T02:30:46.970Z,0
2019-01-31T02:31:27.545Z,0
2019-01-31T02:32:08.102Z,0
2019-01-31T02:32:48.665Z,0
2019-01-31T02:33:29.226Z,0
2019-01-31T02:34:09.795Z,0
2019-01-31T02:34:50.345Z,0
2019-01-31T02:35:30.887Z,0
2019-01-31T02:36:11.480Z,0
2019-01-31T02:36:52.031Z,0
2019-01-31T02:37:32.598Z,0
2019-01-31T02:38:13.139Z,0
2019-01-31T02:38:53.694Z,0
2019-01-31T02:39:42.587Z,0
2019-01-31T02:40:14.819Z,0
2019-01-31T02:40:55.381Z,0
2019-01-31T02:41:35.950Z,0
2019-01-31T02:42:16.510Z,0
2019-01-31T02:42:57.074Z,0
2019-01-31T02:43:37.651Z,0
2019-01-31T02:44:18.226Z,0
2019-01-31T02:44:58.780Z,0
2019-01-31T02:45:39.348Z,0
2019-01-31T02:46:19.926Z,0
2019-01-31T02:47:00.471Z,0
2019-01-31T02:47:41.016Z,0
2019-01-31T02:48:21.557Z,0
2019-01-31T02:49:02.115Z,0
2019-01-31T02:49:42.666Z,0
2019-01-31T02:50:23.224Z,0
2019-01-31T02:51:03.771Z,0
2019-01-31T02:51:44.353Z,0
2019-01-31T02:52:24.904Z,0
2019-01-31T02:53:05.463Z,0
2019-01-31T02:53:46.013Z,0
2019-01-31T02:54:26.599Z,0
2019-01-31T02:55:07.149Z,0
2019-01-31T02:55:47.777Z,0
2019-01-31T02:56:28.275Z,0
2019-01-31T02:57:08.826Z,0
2019-01-31T02:57:49.383Z,0
2019-01-31T02:58:29.966Z,0
2019-01-31T02:59:10.535Z,0
2019-01-31T02:59:51.090Z,0
2019-01-31T03:00:31.652Z,0
2019-01-31T03:01:12.240Z,0
2019-01-31T03:01:52.801Z,0
2019-01-31T03:02:33.347Z,0
2019-01-31T03:03:13.905Z,0
2019-01-31T03:03:54.469Z,0
2019-01-31T03:04:35.023Z,0
2019-01-31T03:05:16.199Z,0
2019-01-31T03:05:56.139Z,0
2019-01-31T03:06:36.706Z,0
2019-01-31T03:07:17.252Z,0
2019-01-31T03:07:57.813Z,0
2019-01-31T03:08:38.379Z,0
2019-01-31T03:09:18.951Z,0
2019-01-31T03:09:59.506Z,0
2019-01-31T03:10:40.082Z,0
2019-01-31T03:11:20.636Z,0
2019-01-31T03:12:01.195Z,0
2019-01-31T03:12:41.761Z,0
2019-01-31T03:13:22.310Z,0
2019-01-31T03:14:10.102Z,0
2019-01-31T03:14:43.454Z,0
2019-01-31T03:15:24.020Z,0
2019-01-31T03:16:04.581Z,0
2019-01-31T03:16:45.138Z,0
2019-01-31T03:17:25.693Z,0
2019-01-31T03:18:06.257Z,0
2019-01-31T03:18:46.806Z,0
2019-01-31T03:19:27.404Z,0
2019-01-31T03:20:07.961Z,0
2019-01-31T03:20:48.563Z,0
2019-01-31T03:21:29.111Z,0
2019-01-31T03:22:09.678Z,0
2019-01-31T03:22:50.261Z,0
2019-01-31T03:23:30.817Z,0
2019-01-31T03:24:11.379Z,0
2019-01-31T03:24:51.962Z,0
2019-01-31T03:25:32.517Z,0
2019-01-31T03:26:13.065Z,0
2019-01-31T03:26:53.618Z,0
2019-01-31T03:27:34.173Z,0
2019-01-31T03:28:14.718Z,0
2019-01-31T03:28:55.294Z,0
2019-01-31T03:29:35.856Z,0
2019-01-31T03:30:16.395Z,0
2019-01-31T03:30:56.951Z,0
2019-01-31T03:31:37.507Z,0
2019-01-31T03:32:18.058Z,0
2019-01-31T03:32:58.622Z,0
2019-01-31T03:33:39.187Z,0
2019-01-31T03:34:19.745Z,0
2019-01-31T03:35:00.413Z,0
2019-01-31T03:35:40.860Z,0
2019-01-31T03:36:21.417Z,0
2019-01-31T03:37:01.984Z,0
2019-01-31T03:37:42.580Z,0
2019-01-31T03:38:23.128Z,0
2019-01-31T03:39:03.689Z,0
2019-01-31T03:39:44.249Z,0
2019-01-31T03:40:24.805Z,0
2019-01-31T03:41:05.379Z,0
2019-01-31T03:41:45.933Z,0
2019-01-31T03:42:26.487Z,0
2019-01-31T03:43:07.037Z,0
2019-01-31T03:43:47.601Z,0
2019-01-31T03:44:28.175Z,0
2019-01-31T03:45:08.731Z,0
2019-01-31T03:45:49.290Z,0
2019-01-31T03:46:29.842Z,0
2019-01-31T03:47:10.391Z,0
2019-01-31T03:47:50.941Z,0
2019-01-31T03:48:31.507Z,0
2019-01-31T03:49:12.066Z,0
2019-01-31T03:49:52.955Z,0
2019-01-31T03:50:33.517Z,0
2019-01-31T03:51:14.105Z,0
2019-01-31T03:51:54.656Z,0
2019-01-31T03:52:35.220Z,0
2019-01-31T03:53:15.787Z,0
2019-01-31T03:53:56.342Z,0
2019-01-31T03:54:36.896Z,0
2019-01-31T03:55:17.452Z,0
2019-01-31T03:55:58.013Z,0
2019-01-31T03:56:38.572Z,0
2019-01-31T03:57:19.137Z,0
2019-01-31T03:57:59.694Z,0
2019-01-31T03:58:40.251Z,0
2019-01-31T03:59:20.792Z,0
2019-01-31T04:00:01.358Z,0
2019-01-31T04:00:41.945Z,0
2019-01-31T04:01:22.516Z,0
2019-01-31T04:02:03.069Z,0
2019-01-31T04:02:43.621Z,0
2019-01-31T04:03:24.179Z,0
2019-01-31T04:04:04.728Z,0
2019-01-31T04:04:45.303Z,0
2019-01-31T04:05:25.844Z,0
2019-01-31T04:06:06.396Z,0
2019-01-31T04:06:46.944Z,0
2019-01-31T04:07:27.522Z,0
2019-01-31T04:08:08.171Z,0
2019-01-31T04:08:48.640Z,0
2019-01-31T04:09:29.326Z,0
2019-01-31T04:10:18.577Z,0
2019-01-31T04:10:50.309Z,0
2019-01-31T04:11:30.882Z,0
2019-01-31T04:12:11.432Z,0
2019-01-31T04:12:52.005Z,0
2019-01-31T04:13:32.555Z,0
2019-01-31T04:14:13.141Z,0
2019-01-31T04:14:53.696Z,0
2019-01-31T04:15:34.258Z,0
2019-01-31T04:16:14.820Z,0
2019-01-31T04:16:55.374Z,0
2019-01-31T04:17:35.927Z,0
2019-01-31T04:18:16.482Z,0
2019-01-31T04:18:57.045Z,0
2019-01-31T04:19:37.595Z,0
2019-01-31T04:20:18.165Z,0
2019-01-31T04:20:58.754Z,0
2019-01-31T04:21:39.330Z,0
2019-01-31T04:22:19.880Z,0
2019-01-31T04:23:00.438Z,0
2019-01-31T04:23:41.002Z,0
2019-01-31T04:24:21.551Z,0
2019-01-31T04:25:02.116Z,0
2019-01-31T04:25:42.662Z,0
2019-01-31T04:26:23.224Z,0
2019-01-31T04:27:03.779Z,0
2019-01-31T04:27:44.336Z,0
2019-01-31T04:28:24.902Z,0
2019-01-31T04:29:05.460Z,0
2019-01-31T04:29:46.002Z,0
2019-01-31T04:30:26.565Z,0
2019-01-31T04:31:07.176Z,0
2019-01-31T04:31:47.713Z,0
2019-01-31T04:32:28.324Z,0
2019-01-31T04:33:08.888Z,0
2019-01-31T04:33:49.444Z,0
2019-01-31T04:34:29.991Z,0
2019-01-31T04:35:10.550Z,0
2019-01-31T04:35:51.113Z,0
2019-01-31T04:36:31.682Z,0
2019-01-31T04:37:12.233Z,0
2019-01-31T04:37:52.817Z,0
2019-01-31T04:38:33.359Z,0
2019-01-31T04:39:13.918Z,0
2019-01-31T04:39:54.470Z,0
2019-01-31T04:40:35.061Z,0
2019-01-31T04:41:15.596Z,0
2019-01-31T04:41:56.150Z,0
2019-01-31T04:42:36.708Z,0
2019-01-31T04:43:17.271Z,0
2019-01-31T04:43:57.838Z,0
2019-01-31T04:44:38.394Z,0
2019-01-31T04:45:18.971Z,0
2019-01-31T04:45:59.518Z,0
2019-01-31T04:46:40.086Z,0
2019-01-31T04:47:20.644Z,0
2019-01-31T04:48:01.206Z,0
2019-01-31T04:48:41.765Z,0
2019-01-31T04:49:23.223Z,0
2019-01-31T04:50:03.780Z,0
2019-01-31T04:50:44.356Z,0
2019-01-31T04:51:24.915Z,0
2019-01-31T04:52:05.472Z,0
2019-01-31T04:52:46.055Z,0
2019-01-31T04:53:26.604Z,0
2019-01-31T04:54:07.187Z,0
2019-01-31T04:54:47.747Z,0
2019-01-31T04:55:28.300Z,0
2019-01-31T04:56:08.853Z,0
2019-01-31T04:56:49.457Z,0
2019-01-31T04:57:30.004Z,0
2019-01-31T04:58:10.566Z,0
2019-01-31T04:58:51.114Z,0
2019-01-31T04:59:31.687Z,0
2019-01-31T05:00:12.242Z,0
2019-01-31T05:00:52.845Z,0
2019-01-31T05:01:33.359Z,0
2019-01-31T05:02:13.961Z,0
2019-01-31T05:02:54.505Z,0
2019-01-31T05:03:35.067Z,0
2019-01-31T05:04:15.621Z,0
2019-01-31T05:04:56.170Z,0
2019-01-31T05:05:36.722Z,0
2019-01-31T05:06:17.269Z,0
2019-01-31T05:06:57.823Z,0
2019-01-31T05:07:38.371Z,0
2019-01-31T05:08:18.956Z,0
2019-01-31T05:08:59.510Z,0
2019-01-31T05:09:40.068Z,0
2019-01-31T05:10:20.646Z,0
2019-01-31T05:11:01.195Z,0
2019-01-31T05:11:41.830Z,0
2019-01-31T05:12:22.381Z,0
2019-01-31T05:13:02.936Z,0
2019-01-31T05:13:43.498Z,0
2019-01-31T05:14:24.072Z,0
2019-01-31T05:15:04.649Z,0
2019-01-31T05:15:45.204Z,0
2019-01-31T05:16:25.766Z,0
2019-01-31T05:17:06.318Z,0
2019-01-31T05:17:46.877Z,0
2019-01-31T05:18:27.421Z,0
2019-01-31T05:19:07.971Z,0
2019-01-31T05:19:48.526Z,0
2019-01-31T05:20:29.081Z,0
2019-01-31T05:21:09.642Z,0
2019-01-31T05:21:50.197Z,0
2019-01-31T05:22:30.758Z,0
2019-01-31T05:23:11.317Z,0
2019-01-31T05:23:51.884Z,0
2019-01-31T05:24:32.427Z,0
2019-01-31T05:25:12.976Z,0
2019-01-31T05:25:53.533Z,0
2019-01-31T05:26:34.088Z,0
2019-01-31T05:27:14.644Z,0
2019-01-31T05:27:55.206Z,0
2019-01-31T05:28:35.772Z,0
2019-01-31T05:29:16.472Z,0
2019-01-31T05:29:56.902Z,0
2019-01-31T05:30:37.479Z,0
2019-01-31T05:31:18.038Z,0
2019-01-31T05:31:58.594Z,0
2019-01-31T05:32:39.172Z,0
2019-01-31T05:33:19.708Z,0
2019-01-31T05:34:00.262Z,0
2019-01-31T05:34:40.850Z,0
2019-01-31T05:35:21.415Z,0
2019-01-31T05:36:01.966Z,0
2019-01-31T05:36:42.514Z,0
2019-01-31T05:37:23.095Z,0
2019-01-31T05:38:03.690Z,0
2019-01-31T05:38:44.248Z,0
2019-01-31T05:39:24.802Z,0
2019-01-31T05:40:05.355Z,0
2019-01-31T05:40:55.160Z,0
2019-01-31T05:41:26.592Z,0
2019-01-31T05:42:07.168Z,0
2019-01-31T05:42:47.841Z,0
2019-01-31T05:43:28.676Z,0
2019-01-31T05:44:09.274Z,0
2019-01-31T05:44:50.089Z,0
2019-01-31T05:45:30.570Z,0
2019-01-31T05:46:11.141Z,0
2019-01-31T05:46:51.692Z,0
2019-01-31T05:47:32.272Z,0
2019-01-31T05:48:12.917Z,0
2019-01-31T05:48:53.796Z,0
2019-01-31T05:49:34.528Z,0
2019-01-31T05:50:15.087Z,0
2019-01-31T05:50:55.641Z,0
2019-01-31T05:51:39.148Z,0
2019-01-31T05:52:16.854Z,0
2019-01-31T05:52:57.455Z,0
2019-01-31T05:53:38.012Z,0
2019-01-31T05:54:18.568Z,0
2019-01-31T05:54:59.126Z,0
2019-01-31T05:55:39.697Z,0
2019-01-31T05:56:20.515Z,0
2019-01-31T05:57:01.236Z,0
2019-01-31T05:57:41.962Z,0
2019-01-31T05:58:22.709Z,0
2019-01-31T05:59:05.549Z,0
2019-01-31T05:59:43.838Z,0
2019-01-31T06:00:24.456Z,0
2019-01-31T06:01:05.017Z,0
2019-01-31T06:01:45.565Z,0
2019-01-31T06:02:26.156Z,0
2019-01-31T06:03:06.734Z,0
2019-01-31T06:03:47.299Z,0
2019-01-31T06:04:27.859Z,0
2019-01-31T06:05:08.402Z,0
2019-01-31T06:05:48.957Z,0
2019-01-31T06:06:29.516Z,0
2019-01-31T06:07:11.071Z,0
2019-01-31T06:07:50.626Z,0
2019-01-31T06:08:31.207Z,0
2019-01-31T06:09:11.782Z,0
2019-01-31T06:09:52.343Z,0
2019-01-31T06:10:33.549Z,0
2019-01-31T06:11:13.482Z,0
2019-01-31T06:11:54.050Z,0
2019-01-31T06:12:34.618Z,0
2019-01-31T06:13:15.168Z,0
2019-01-31T06:13:55.727Z,0
2019-01-31T06:14:36.297Z,0
2019-01-31T06:15:16.843Z,0
2019-01-31T06:15:57.419Z,0
2019-01-31T06:16:37.984Z,0
2019-01-31T06:17:18.544Z,0
2019-01-31T06:17:59.110Z,0
2019-01-31T06:18:39.663Z,0
2019-01-31T06:19:20.218Z,0
2019-01-31T06:20:00.778Z,0
2019-01-31T06:20:41.361Z,4
2019-01-31T06:21:21.915Z,4
2019-01-31T06:22:02.463Z,4
2019-01-31T06:22:43.043Z,4
2019-01-31T06:23:23.597Z,4
2019-01-31T06:24:04.203Z,0
2019-01-31T06:24:44.853Z,0
2019-01-31T06:25:25.676Z,0
2019-01-31T06:26:06.582Z,4
2019-01-31T06:26:47.089Z,4
2019-01-31T06:27:27.693Z,0
2019-01-31T06:28:08.491Z,4
2019-01-31T06:28:49.074Z,4
2019-01-31T06:29:29.640Z,8
2019-01-31T06:30:10.195Z,4
2019-01-31T06:30:50.747Z,4
2019-01-31T06:31:31.414Z,4
2019-01-31T06:32:11.961Z,8
2019-01-31T06:32:52.592Z,8
2019-01-31T06:33:33.152Z,12
2019-01-31T06:34:13.705Z,16
2019-01-31T06:34:54.284Z,16
2019-01-31T06:35:34.873Z,16
2019-01-31T06:36:15.424Z,16
2019-01-31T06:36:56.014Z,20
2019-01-31T06:37:36.608Z,20
2019-01-31T06:38:17.186Z,20
2019-01-31T06:38:57.800Z,20
2019-01-31T06:39:38.327Z,24
2019-01-31T06:40:18.866Z,24
2019-01-31T06:40:59.414Z,28
2019-01-31T06:41:40.004Z,32
2019-01-31T06:42:20.561Z,36
2019-01-31T06:43:01.134Z,40
2019-01-31T06:43:41.704Z,40
2019-01-31T06:44:22.296Z,44
2019-01-31T06:45:02.849Z,52
2019-01-31T06:45:43.410Z,52
2019-01-31T06:46:23.961Z,60
2019-01-31T06:47:04.534Z,64
2019-01-31T06:47:45.469Z,72
2019-01-31T06:48:26.088Z,80
2019-01-31T06:49:06.641Z,88
2019-01-31T06:49:47.212Z,92
2019-01-31T06:50:27.768Z,96
2019-01-31T06:51:08.331Z,100
2019-01-31T06:51:48.894Z,108
2019-01-31T06:52:29.462Z,112
2019-01-31T06:53:10.011Z,116
2019-01-31T06:53:50.580Z,120
2019-01-31T06:54:31.165Z,124
2019-01-31T06:55:11.757Z,124
2019-01-31T06:55:52.308Z,128
2019-01-31T06:56:32.886Z,132
2019-01-31T06:57:13.464Z,136
2019-01-31T06:57:54.077Z,140
2019-01-31T06:58:34.668Z,144
2019-01-31T06:59:15.243Z,148
2019-01-31T06:59:55.813Z,160
2019-01-31T07:00:36.385Z,172
2019-01-31T07:01:16.937Z,188
2019-01-31T07:01:57.510Z,216
2019-01-31T07:02:38.081Z,236
2019-01-31T07:06:14.319Z,336
2019-01-31T07:06:54.863Z,344
2019-01-31T07:07:35.428Z,360
2019-01-31T07:08:15.984Z,376
2019-01-31T07:08:56.533Z,396
2019-01-31T07:09:37.083Z,412
2019-01-31T07:10:17.636Z,424
2019-01-31T07:10:58.221Z,440
2019-01-31T07:11:38.771Z,460
2019-01-31T07:12:19.320Z,476
2019-01-31T07:12:59.873Z,492
2019-01-31T07:13:40.425Z,512
2019-01-31T07:14:21.004Z,532
2019-01-31T07:15:01.622Z,552
2019-01-31T07:15:42.342Z,576
2019-01-31T07:16:22.946Z,600
2019-01-31T10:41:18.381Z,3988
2019-01-31T10:41:59.001Z,3948
2019-01-31T10:42:49.304Z,3904
2019-01-31T10:43:20.128Z,3860
2019-01-31T10:44:00.701Z,3796
2019-01-31T10:44:41.259Z,3752
2019-01-31T10:45:24.601Z,3660
2019-01-31T10:46:02.386Z,3524
2019-01-31T10:46:42.942Z,3584
2019-01-31T10:47:23.543Z,3528
2019-01-31T10:48:04.167Z,3548
2019-01-31T10:48:44.738Z,3544
2019-01-31T10:49:25.318Z,3572
2019-01-31T10:50:06.205Z,3568
2019-01-31T10:50:46.759Z,3540
2019-01-31T10:51:27.320Z,3516
2019-01-31T10:52:07.874Z,3500
2019-01-31T10:52:48.417Z,3472
2019-01-31T10:53:29.069Z,3440
2019-01-31T10:54:09.642Z,3416
2019-01-31T10:54:50.206Z,3404
2019-01-31T10:55:32.273Z,3400
2019-01-31T10:56:12.838Z,3396
2019-01-31T10:56:53.396Z,3380
2019-01-31T10:57:33.945Z,3384
2019-01-31T10:58:14.501Z,3388
2019-01-31T10:58:55.068Z,3388
2019-01-31T10:59:35.634Z,3376
2019-01-31T11:00:16.214Z,3368
2019-01-31T11:00:56.776Z,3340
2019-01-31T11:01:37.328Z,3320
2019-01-31T11:02:17.880Z,3264
2019-01-31T11:02:58.448Z,3168
2019-01-31T11:03:39.095Z,3124
2019-01-31T11:04:19.648Z,3148
2019-01-31T11:05:00.218Z,3108
2019-01-31T11:05:40.755Z,3092
2019-01-31T11:06:21.323Z,3032
2019-01-31T11:07:01.955Z,3000
2019-01-31T11:07:42.581Z,3060
2019-01-31T11:08:23.068Z,3048
2019-01-31T11:09:03.627Z,2968
2019-01-31T11:09:44.208Z,2972
2019-01-31T11:10:24.773Z,2896
2019-01-31T11:11:05.324Z,2844
2019-01-31T11:11:45.911Z,2936
2019-01-31T11:12:26.449Z,2952
2019-01-31T11:13:06.995Z,2976
2019-01-31T11:13:47.555Z,3032
2019-01-31T11:14:28.161Z,3020
2019-01-31T11:15:08.758Z,3020
2019-01-31T11:15:49.308Z,3032
2019-01-31T11:16:29.858Z,3044
2019-01-31T11:17:10.408Z,3064
2019-01-31T11:17:50.985Z,3084
2019-01-31T11:18:31.542Z,3088
2019-01-31T11:19:12.808Z,3084
2019-01-31T11:19:52.654Z,3076
2019-01-31T11:20:33.245Z,3084
2019-01-31T11:21:13.796Z,3064
2019-01-31T11:21:54.360Z,3048
2019-01-31T11:22:34.946Z,3060
2019-01-31T11:23:15.564Z,3088
2019-01-31T11:23:56.145Z,3092
2019-01-31T11:24:36.754Z,3092
2019-01-31T11:25:17.319Z,3088
2019-01-31T11:25:57.888Z,3088
2019-01-31T11:26:38.439Z,3088
2019-01-31T11:27:19.002Z,3072
2019-01-31T11:27:59.599Z,3052
2019-01-31T11:28:40.187Z,3044
2019-01-31T11:29:20.729Z,3068
2019-01-31T11:30:01.323Z,3068
2019-01-31T11:30:41.885Z,3072
2019-01-31T11:31:22.476Z,3072
2019-01-31T11:32:03.034Z,3072
2019-01-31T11:32:43.591Z,3108
2019-01-31T11:33:24.161Z,3148
2019-01-31T11:34:04.746Z,3192
2019-01-31T11:34:45.316Z,3216
2019-01-31T11:35:25.872Z,3228
2019-01-31T11:36:06.431Z,3232
2019-01-31T11:36:46.998Z,3208
2019-01-31T11:37:27.564Z,3184
2019-01-31T11:38:08.136Z,3108
2019-01-31T11:38:48.683Z,3080
2019-01-31T11:39:29.259Z,3024
2019-01-31T11:40:09.831Z,3008
2019-01-31T11:40:50.392Z,3020
2019-01-31T11:41:30.950Z,3020
2019-01-31T11:42:11.530Z,3040
2019-01-31T11:42:52.090Z,3024
2019-01-31T11:43:32.761Z,3040
2019-01-31T11:44:13.222Z,3032
2019-01-31T11:44:53.789Z,3028
2019-01-31T11:45:34.359Z,3052
2019-01-31T11:46:14.907Z,3044
2019-01-31T11:46:55.461Z,3068
2019-01-31T11:47:36.080Z,3056
2019-01-31T11:48:16.637Z,3040
2019-01-31T11:48:57.185Z,2996
2019-01-31T11:49:38.241Z,3032
2019-01-31T11:50:18.807Z,3028
2019-01-31T11:50:59.366Z,3040
2019-01-31T11:51:39.922Z,3064
2019-01-31T11:52:20.482Z,3112
2019-01-31T11:53:01.048Z,3164
2019-01-31T11:53:41.675Z,3204
2019-01-31T11:54:22.267Z,3152
2019-01-31T11:55:02.860Z,3172
2019-01-31T11:55:43.428Z,3136
2019-01-31T11:56:23.991Z,2860
2019-01-31T11:57:05.402Z,2908
2019-01-31T11:57:45.097Z,3052
2019-01-31T11:58:25.642Z,3176
2019-01-31T11:59:06.197Z,3056
2019-01-31T11:59:46.751Z,3076
2019-01-31T12:00:27.298Z,3212
2019-01-31T12:01:07.904Z,3244
2019-01-31T12:01:48.480Z,3236
2019-01-31T12:02:29.053Z,3324
2019-01-31T12:03:09.601Z,3496
2019-01-31T12:03:50.175Z,3688
2019-01-31T12:04:30.731Z,3900
2019-01-31T12:05:11.279Z,3844
2019-01-31T12:05:51.834Z,3840
2019-01-31T12:06:32.389Z,3708
2019-01-31T12:07:12.946Z,3600
2019-01-31T12:07:53.542Z,3664
2019-01-31T12:08:34.094Z,3640
2019-01-31T12:09:14.657Z,3764
2019-01-31T12:09:55.207Z,3840
2019-01-31T12:10:35.758Z,4048
2019-01-31T12:11:16.330Z,4004
2019-01-31T12:11:56.883Z,3900
2019-01-31T12:12:37.442Z,4140
2019-01-31T12:13:23.432Z,3840
2019-01-31T12:13:58.561Z,4096
2019-01-31T12:14:39.121Z,3804
2019-01-31T12:15:19.679Z,3968
2019-01-31T12:16:00.281Z,4000
2019-01-31T12:16:40.849Z,3964
2019-01-31T12:17:21.407Z,3848
2019-01-31T12:18:01.980Z,3680
2019-01-31T12:18:42.548Z,3504
2019-01-31T12:19:23.112Z,3356
2019-01-31T12:20:03.692Z,3268
2019-01-31T12:20:44.250Z,3176
2019-01-31T12:21:24.812Z,3088
2019-01-31T12:22:05.356Z,3044
2019-01-31T12:22:45.964Z,3024
2019-01-31T12:23:26.528Z,3024
2019-01-31T12:24:16.034Z,3032
2019-01-31T12:24:47.635Z,3052
2019-01-31T12:25:28.221Z,3068
2019-01-31T12:26:08.781Z,3092
2019-01-31T12:26:49.390Z,3108
2019-01-31T12:27:29.932Z,3092
2019-01-31T12:28:10.497Z,3048
2019-01-31T12:28:51.272Z,2992
2019-01-31T12:29:31.607Z,2924
2019-01-31T12:30:12.168Z,2844
2019-01-31T12:30:52.775Z,2768
2019-01-31T12:31:33.338Z,2704
2019-01-31T12:32:13.897Z,2636
2019-01-31T12:32:54.467Z,2568
2019-01-31T12:33:35.021Z,2496
2019-01-31T12:34:15.578Z,2412
2019-01-31T12:34:56.141Z,2336
2019-01-31T12:35:36.682Z,2264
2019-01-31T12:36:17.261Z,2232
2019-01-31T12:36:57.840Z,2228
2019-01-31T12:37:38.404Z,2220
2019-01-31T12:38:18.952Z,2328
2019-01-31T12:38:59.519Z,2320
2019-01-31T12:39:40.076Z,2344
2019-01-31T12:40:20.632Z,2444
2019-01-31T12:41:01.195Z,2488
2019-01-31T12:41:41.770Z,2520
2019-01-31T12:42:22.328Z,2516
2019-01-31T12:43:02.877Z,2516
2019-01-31T12:43:43.447Z,2476
2019-01-31T12:44:24.016Z,2372
2019-01-31T12:45:04.569Z,2284
2019-01-31T12:45:45.123Z,2228
2019-01-31T12:46:25.726Z,2176
2019-01-31T12:47:06.292Z,2132
2019-01-31T12:47:46.846Z,2036
2019-01-31T12:48:27.443Z,1896
2019-01-31T12:49:08.003Z,1840
2019-01-31T12:49:48.900Z,1816
2019-01-31T12:50:29.461Z,1908
2019-01-31T12:51:10.028Z,1860
2019-01-31T12:51:50.592Z,1712
2019-01-31T12:52:31.267Z,1640
2019-01-31T12:53:11.727Z,1604
2019-01-31T12:53:52.277Z,1580
2019-01-31T12:54:32.839Z,1564
2019-01-31T12:55:13.398Z,1544
2019-01-31T12:55:53.980Z,1520
2019-01-31T12:56:34.539Z,1500
2019-01-31T12:57:15.121Z,1480
2019-01-31T12:57:55.668Z,1456
2019-01-31T12:58:36.226Z,1436
2019-01-31T12:59:16.792Z,1408
2019-01-31T12:59:57.362Z,1388
2019-01-31T13:00:37.980Z,1372
2019-01-31T13:01:18.526Z,1364
2019-01-31T13:01:59.086Z,1360
2019-01-31T13:02:39.641Z,1340
2019-01-31T13:03:20.192Z,1300
2019-01-31T13:04:00.772Z,1244
2019-01-31T13:04:41.330Z,1192
2019-01-31T13:05:21.897Z,1144
2019-01-31T13:06:02.454Z,1092
2019-01-31T13:06:43.004Z,1052
2019-01-31T13:07:23.568Z,1024
2019-01-31T13:08:04.165Z,996